Αρχική σελίδα
METAR-TAF:

METAR-TAF

Αεροδρόμια :

Gage, Οκλαχόμα, Ηνωμένες Πολιτείες Αμερικής

γεωγραφικό πλάτος: 36-17-48N, γεωγραφικό μήκος: 099-46-08W, υψόμετρο: 677 μ

Παρών καιρός

Η αναφορά έγινε 54 λεπτά πριν, στις 22:53 UTC
Άνεμος 8 kt από ΝA
Θερμοκρασία 39°C
Υγρασία 24%
Πίεση 1012 hPa
Ορατότητα: 16.1 χλμ

METAR: KGAG 222253Z AUTO 13008KT 10SM 39/15 A2988 RMK AO2 SLP081 T03940150 $

Χρόνος: 18:47 (23:47 UTC)


TAF: λείπει

Μετεωρολογικές αναφορές και προγνώσεις για περισσότερα από 4000 αεροδρόμια (δελτία METAR και TAF).

Οι διαθέσιμοι σταθμοί απεικονίζονται στο χάρτη με κίτρινες και κόκκινες κουκκίδες.

Μετακινήστε το ποντίκι πάνω από τις κουκκίδες για να δείτε το όνομα του σταθμού.

Στη συνέχεια, κάντε κλικ για να δείτε τις μετεωρολογικές αναφορές και τις προγνώσεις καιρού.

Για να αλλάξετε το χάρτη: κάντε κλικ στα πράσινα κουμπιά με τον μαύρο σταυρό για να ζουμάρετε, στο πράσινο κουμπί με την παύλα για να αφαιρέσετε το ζουμ ή στα πράσινα βέλη για να αντιπαραβάλλετε χάρτες.


METAR-TAF: